createdAt,value
2017-05-14T00:00:38.549Z,1008.12
2017-05-14T00:01:39.187Z,1008.13
2017-05-14T00:02:39.803Z,1008.14
2017-05-14T00:03:40.417Z,1008.15
2017-05-14T00:04:41.005Z,1008.10
2017-05-14T00:05:41.603Z,1008.14
2017-05-14T00:06:42.219Z,1008.13
2017-05-14T00:07:42.833Z,1008.20
2017-05-14T00:08:43.443Z,1008.17
2017-05-14T00:09:44.041Z,1008.20
2017-05-14T00:10:44.650Z,1008.23
2017-05-14T00:11:45.297Z,1008.22
2017-05-14T00:12:45.905Z,1008.25
2017-05-14T00:13:46.518Z,1008.23
2017-05-14T00:14:47.123Z,1008.26
2017-05-14T00:15:47.734Z,1008.27
2017-05-14T00:16:48.347Z,1008.27
2017-05-14T00:17:48.944Z,1008.28
2017-05-14T00:18:49.558Z,1008.22
2017-05-14T00:19:50.173Z,1008.26
2017-05-14T00:20:50.786Z,1008.33
2017-05-14T00:21:51.445Z,1008.31
2017-05-14T00:22:52.057Z,1008.32
2017-05-14T00:23:52.660Z,1008.31
2017-05-14T00:24:53.255Z,1008.33
2017-05-14T00:25:53.866Z,1008.34
2017-05-14T00:26:54.531Z,1008.34
2017-05-14T00:27:55.140Z,1008.43
2017-05-14T00:28:55.751Z,1008.42
2017-05-14T00:29:56.360Z,1008.40
2017-05-14T00:30:56.968Z,1008.39
2017-05-14T00:31:57.576Z,1008.38
2017-05-14T00:32:58.181Z,1008.35
2017-05-14T00:33:58.782Z,1008.35
2017-05-14T00:34:59.393Z,1008.39
2017-05-14T00:36:00.003Z,1008.37
2017-05-14T00:37:00.602Z,1008.39
2017-05-14T00:38:01.204Z,1008.38
2017-05-14T00:39:01.804Z,1008.40
2017-05-14T00:40:02.412Z,1008.39
2017-05-14T00:41:03.022Z,1008.39
2017-05-14T00:42:03.635Z,1008.39
2017-05-14T00:43:04.232Z,1008.41
2017-05-14T00:44:04.899Z,1008.39
2017-05-14T00:45:05.511Z,1008.39
2017-05-14T00:46:06.113Z,1008.43
2017-05-14T00:47:06.711Z,1008.37
2017-05-14T00:48:07.326Z,1008.40
2017-05-14T00:49:07.984Z,1008.38
2017-05-14T00:50:08.578Z,1008.42
2017-05-14T00:51:09.173Z,1008.42
2017-05-14T00:52:09.769Z,1008.45
2017-05-14T00:53:10.366Z,1008.45
2017-05-14T00:54:10.977Z,1008.45
2017-05-14T00:55:11.588Z,1008.47
2017-05-14T00:56:12.193Z,1008.46
2017-05-14T00:57:12.802Z,1008.50
2017-05-14T00:58:13.399Z,1008.49
2017-05-14T00:59:14.059Z,1008.54
2017-05-14T01:00:14.659Z,1008.57
2017-05-14T01:01:15.256Z,1008.54
2017-05-14T01:02:15.857Z,1008.55
2017-05-14T01:03:16.467Z,1008.54
2017-05-14T01:04:17.120Z,1008.54
2017-05-14T01:05:17.718Z,1008.52
2017-05-14T01:06:18.331Z,1008.51
2017-05-14T01:07:18.937Z,1008.55
2017-05-14T01:08:19.547Z,1008.56
2017-05-14T01:09:20.198Z,1008.55
2017-05-14T01:10:20.799Z,1008.53
2017-05-14T01:11:21.395Z,1008.60
2017-05-14T01:12:22.005Z,1008.62
2017-05-14T01:13:22.621Z,1008.58
2017-05-14T01:14:23.282Z,1008.60
2017-05-14T01:15:23.896Z,1008.60
2017-05-14T01:16:24.507Z,1008.60
2017-05-14T01:17:25.117Z,1008.58
2017-05-14T01:18:25.723Z,1008.61
2017-05-14T01:19:26.384Z,1008.61
2017-05-14T01:20:26.991Z,1008.59
2017-05-14T01:21:27.586Z,1008.59
2017-05-14T01:22:28.184Z,1008.60
2017-05-14T01:23:28.783Z,1008.62
2017-05-14T01:24:29.393Z,1008.61
2017-05-14T01:25:30.006Z,1008.62
2017-05-14T01:26:30.617Z,1008.63
2017-05-14T01:27:31.224Z,1008.63
2017-05-14T01:28:31.833Z,1008.64
2017-05-14T01:29:32.439Z,1008.64
2017-05-14T01:30:33.043Z,1008.66
2017-05-14T01:31:33.702Z,1008.64
2017-05-14T01:32:34.302Z,1008.61
2017-05-14T01:33:34.906Z,1008.65
2017-05-14T01:34:35.514Z,1008.65
2017-05-14T01:35:36.130Z,1008.63
2017-05-14T01:36:36.790Z,1008.63
2017-05-14T01:37:37.398Z,1008.61
2017-05-14T01:38:38.005Z,1008.66
2017-05-14T01:39:38.612Z,1008.62
2017-05-14T01:40:39.219Z,1008.63
2017-05-14T01:41:39.880Z,1008.63
2017-05-14T01:42:40.494Z,1008.63
2017-05-14T01:43:41.093Z,1008.65
2017-05-14T01:44:41.688Z,1008.64
2017-05-14T01:45:42.301Z,1008.63
2017-05-14T01:46:42.948Z,1008.62
2017-05-14T01:47:43.548Z,1008.64
2017-05-14T01:48:44.160Z,1008.65
2017-05-14T01:49:44.764Z,1008.63
2017-05-14T01:50:45.364Z,1008.65
2017-05-14T01:51:46.024Z,1008.68
2017-05-14T01:52:46.635Z,1008.65
2017-05-14T01:53:47.247Z,1008.67
2017-05-14T01:54:47.844Z,1008.69
2017-05-14T01:55:48.444Z,1008.68
2017-05-14T01:56:49.048Z,1008.68
2017-05-14T01:57:49.646Z,1008.67
2017-05-14T01:58:50.262Z,1008.65
2017-05-14T01:59:50.881Z,1008.71
2017-05-14T02:00:51.476Z,1008.68
2017-05-14T02:01:52.084Z,1008.66
2017-05-14T02:02:52.680Z,1008.67
2017-05-14T02:03:53.277Z,1008.66
2017-05-14T02:04:53.873Z,1008.65
2017-05-14T02:05:54.478Z,1008.67
2017-05-14T02:06:55.073Z,1008.66
2017-05-14T02:07:55.690Z,1008.68
2017-05-14T02:08:56.280Z,1008.64
2017-05-14T02:09:56.888Z,1008.62
2017-05-14T02:10:57.485Z,1008.64
2017-05-14T02:11:58.083Z,1008.62
2017-05-14T02:12:58.696Z,1008.63
2017-05-14T02:13:59.295Z,1008.62
2017-05-14T02:14:59.903Z,1008.64
2017-05-14T02:16:00.507Z,1008.70
2017-05-14T02:17:01.115Z,1008.69
2017-05-14T02:18:01.715Z,1008.70
2017-05-14T02:19:02.328Z,1008.67
2017-05-14T02:20:02.946Z,1008.71
2017-05-14T02:21:03.554Z,1008.74
2017-05-14T02:22:04.153Z,1008.71
2017-05-14T02:23:04.766Z,1008.75
2017-05-14T02:24:05.362Z,1008.79
2017-05-14T02:25:05.960Z,1008.77
2017-05-14T02:26:06.615Z,1008.77
2017-05-14T02:27:07.223Z,1008.79
2017-05-14T02:28:07.832Z,1008.76
2017-05-14T02:29:08.445Z,1008.77
2017-05-14T02:30:09.053Z,1008.78
2017-05-14T02:31:09.699Z,1008.78
2017-05-14T02:32:10.295Z,1008.78
2017-05-14T02:33:10.906Z,1008.80
2017-05-14T02:34:11.502Z,1008.82
2017-05-14T02:35:12.111Z,1008.80
2017-05-14T02:36:12.709Z,1008.82
2017-05-14T02:37:13.304Z,1008.85
2017-05-14T02:38:13.913Z,1008.81
2017-05-14T02:39:14.562Z,1008.82
2017-05-14T02:40:15.157Z,1008.83
2017-05-14T02:41:15.771Z,1008.83
2017-05-14T02:42:16.366Z,1008.84
2017-05-14T02:43:16.962Z,1008.84
2017-05-14T02:44:17.574Z,1008.86
2017-05-14T02:45:18.173Z,1008.85
2017-05-14T02:46:18.768Z,1008.91
2017-05-14T02:47:19.369Z,1008.85
2017-05-14T02:48:19.972Z,1008.86
2017-05-14T02:49:20.579Z,1008.89
2017-05-14T02:50:21.183Z,1008.88
2017-05-14T02:51:21.791Z,1008.85
2017-05-14T02:52:22.389Z,1008.90
2017-05-14T02:53:22.988Z,1008.90
2017-05-14T02:54:23.590Z,1008.85
2017-05-14T02:55:24.192Z,1008.86
2017-05-14T02:56:24.801Z,1008.87
2017-05-14T02:57:25.408Z,1008.87
2017-05-14T02:58:26.021Z,1008.88
2017-05-14T02:59:26.643Z,1008.88
2017-05-14T03:00:27.248Z,1008.88
2017-05-14T03:01:27.853Z,1008.86
2017-05-14T03:02:28.459Z,1008.86
2017-05-14T03:03:29.068Z,1008.84
2017-05-14T03:04:29.683Z,1008.84
2017-05-14T03:05:30.280Z,1008.86
2017-05-14T03:06:30.890Z,1008.86
2017-05-14T03:07:31.499Z,1008.88
2017-05-14T03:08:32.098Z,1008.88
2017-05-14T03:09:32.698Z,1008.87
2017-05-14T03:10:33.311Z,1008.86
2017-05-14T03:11:33.921Z,1008.84
2017-05-14T03:12:34.564Z,1008.84
2017-05-14T03:13:35.133Z,1008.87
2017-05-14T03:14:35.791Z,1008.85
2017-05-14T03:15:36.403Z,1008.86
2017-05-14T03:16:37.016Z,1008.87
2017-05-14T03:17:37.620Z,1008.88
2017-05-14T03:18:38.218Z,1008.92
2017-05-14T03:19:38.832Z,1008.86
2017-05-14T03:20:39.441Z,1008.88
2017-05-14T03:21:40.039Z,1008.86
2017-05-14T03:22:40.655Z,1008.83
2017-05-14T03:23:41.264Z,1008.82
2017-05-14T03:24:41.862Z,1008.80
2017-05-14T03:25:42.475Z,1008.78
2017-05-14T03:26:43.075Z,1008.78
2017-05-14T03:27:43.685Z,1008.82
2017-05-14T03:28:44.297Z,1008.80
2017-05-14T03:29:44.963Z,1008.80
2017-05-14T03:30:45.561Z,1008.81
2017-05-14T03:31:46.189Z,1008.83
2017-05-14T03:32:46.785Z,1008.83
2017-05-14T03:33:47.383Z,1008.81
2017-05-14T03:34:48.045Z,1008.83
2017-05-14T03:35:48.642Z,1008.85
2017-05-14T03:36:49.242Z,1008.83
2017-05-14T03:37:49.850Z,1008.84
2017-05-14T03:38:50.455Z,1008.83
2017-05-14T03:39:51.065Z,1008.84
2017-05-14T03:40:51.662Z,1008.84
2017-05-14T03:41:52.263Z,1008.82
2017-05-14T03:42:52.880Z,1008.82
2017-05-14T03:43:53.490Z,1008.81
2017-05-14T03:44:54.091Z,1008.84
2017-05-14T03:45:54.697Z,1008.82
2017-05-14T03:46:55.298Z,1008.82
2017-05-14T03:47:55.894Z,1008.84
2017-05-14T03:48:56.515Z,1008.86
2017-05-14T03:49:57.106Z,1008.81
2017-05-14T03:50:57.707Z,1008.80
2017-05-14T03:51:58.313Z,1008.79
2017-05-14T03:52:58.923Z,1008.82
2017-05-14T03:53:59.527Z,1008.80
2017-05-14T03:55:00.135Z,1008.79
2017-05-14T03:56:00.736Z,1008.84
2017-05-14T03:57:01.349Z,1008.88
2017-05-14T03:58:01.951Z,1008.89
2017-05-14T03:59:02.563Z,1008.87
2017-05-14T04:00:03.214Z,1008.87
2017-05-14T04:01:03.825Z,1008.91
2017-05-14T04:02:04.433Z,1008.92
2017-05-14T04:03:05.040Z,1008.95
2017-05-14T04:04:05.651Z,1008.93
2017-05-14T04:05:06.262Z,1008.97
2017-05-14T04:06:06.915Z,1008.95
2017-05-14T04:07:07.529Z,1009.00
2017-05-14T04:08:08.141Z,1008.97
2017-05-14T04:09:08.754Z,1008.99
2017-05-14T04:10:09.355Z,1008.99
2017-05-14T04:11:10.007Z,1009.00
2017-05-14T04:12:10.621Z,1009.00
2017-05-14T04:13:11.236Z,1009.03
2017-05-14T04:14:11.840Z,1009.04
2017-05-14T04:15:12.442Z,1009.04
2017-05-14T04:16:13.045Z,1009.05
2017-05-14T04:17:13.639Z,1009.05
2017-05-14T04:18:14.253Z,1009.05
2017-05-14T04:19:14.869Z,1009.04
2017-05-14T04:20:15.483Z,1009.02
2017-05-14T04:21:16.098Z,1008.99
2017-05-14T04:22:16.716Z,1009.03
2017-05-14T04:23:17.368Z,1009.02
2017-05-14T04:24:17.973Z,1009.05
2017-05-14T04:25:18.585Z,1009.02
2017-05-14T04:26:19.197Z,1008.99
2017-05-14T04:27:19.808Z,1009.01
2017-05-14T04:28:20.430Z,1009.00
2017-05-14T04:29:21.043Z,1009.03
2017-05-14T04:30:21.658Z,1009.00
2017-05-14T04:31:22.259Z,1009.03
2017-05-14T04:32:22.875Z,1008.96
2017-05-14T04:33:23.539Z,1009.00
2017-05-14T04:34:24.151Z,1008.97
2017-05-14T04:35:24.753Z,1008.96
2017-05-14T04:36:25.358Z,1008.99
2017-05-14T04:37:25.960Z,1008.95
2017-05-14T04:38:26.610Z,1008.90
2017-05-14T04:39:27.225Z,1008.96
2017-05-14T04:40:27.826Z,1008.94
2017-05-14T04:41:28.442Z,1008.96
2017-05-14T04:42:29.061Z,1008.92
2017-05-14T04:43:29.661Z,1008.97
2017-05-14T04:44:30.266Z,1008.90
2017-05-14T04:45:30.880Z,1008.93
2017-05-14T04:46:31.493Z,1008.93
2017-05-14T04:47:32.113Z,1008.91
2017-05-14T04:48:32.730Z,1008.97
2017-05-14T04:49:33.349Z,1008.95
2017-05-14T04:50:33.954Z,1009.00
2017-05-14T04:51:34.569Z,1009.00
2017-05-14T04:52:35.171Z,1009.08
2017-05-14T04:53:35.788Z,1009.06
2017-05-14T04:54:36.407Z,1009.07
2017-05-14T04:55:37.027Z,1009.10
2017-05-14T04:56:37.681Z,1009.09
2017-05-14T04:57:38.293Z,1009.11
2017-05-14T04:58:38.918Z,1009.15
2017-05-14T04:59:39.528Z,1009.15
2017-05-14T05:00:40.150Z,1009.18
2017-05-14T05:01:40.771Z,1009.18
2017-05-14T05:02:41.385Z,1009.20
2017-05-14T05:03:42.002Z,1009.26
2017-05-14T05:04:42.611Z,1009.21
2017-05-14T05:05:43.214Z,1009.21
2017-05-14T05:06:43.872Z,1009.25
2017-05-14T05:07:44.479Z,1009.22
2017-05-14T05:08:45.097Z,1009.18
2017-05-14T05:09:45.765Z,1009.19
2017-05-14T05:10:46.339Z,1009.19
2017-05-14T05:11:46.972Z,1009.20
2017-05-14T05:12:47.578Z,1009.23
2017-05-14T05:13:48.193Z,1009.25
2017-05-14T05:14:48.811Z,1009.27
2017-05-14T05:15:49.433Z,1009.31
2017-05-14T05:16:50.103Z,1009.35
2017-05-14T05:17:50.723Z,1009.31
2017-05-14T05:18:51.354Z,1009.35
2017-05-14T05:19:51.971Z,1009.37
2017-05-14T05:20:52.582Z,1009.36
2017-05-14T05:21:53.193Z,1009.42
2017-05-14T05:22:53.814Z,1009.45
2017-05-14T05:23:54.436Z,1009.43
2017-05-14T05:24:55.110Z,1009.43
2017-05-14T05:25:55.729Z,1009.43
2017-05-14T05:26:56.343Z,1009.48
2017-05-14T05:27:56.967Z,1009.49
2017-05-14T05:28:57.587Z,1009.51
2017-05-14T05:29:58.262Z,1009.50
2017-05-14T05:30:58.879Z,1009.50
2017-05-14T05:31:59.510Z,1009.48
2017-05-14T05:33:00.138Z,1009.49
2017-05-14T05:34:00.760Z,1009.53
2017-05-14T05:35:01.384Z,1009.52
2017-05-14T05:36:02.018Z,1009.53
2017-05-14T05:37:02.634Z,1009.51
2017-05-14T05:38:03.264Z,1009.52
2017-05-14T05:39:03.902Z,1009.56
2017-05-14T05:40:04.520Z,1009.57
2017-05-14T05:41:05.192Z,1009.55
2017-05-14T05:42:05.778Z,1009.58
2017-05-14T05:43:06.405Z,1009.55
2017-05-14T05:44:07.033Z,1009.57
2017-05-14T05:45:07.661Z,1009.51
2017-05-14T05:46:08.336Z,1009.55
2017-05-14T05:47:08.951Z,1009.58
2017-05-14T05:48:09.577Z,1009.63
2017-05-14T05:49:10.203Z,1009.60
2017-05-14T05:50:10.821Z,1009.62
2017-05-14T05:51:11.493Z,1009.57
2017-05-14T05:52:12.122Z,1009.60
2017-05-14T05:53:12.739Z,1009.59
2017-05-14T05:54:13.360Z,1009.60
2017-05-14T05:55:13.992Z,1009.58
2017-05-14T05:56:14.616Z,1009.57
2017-05-14T05:57:15.236Z,1009.56
2017-05-14T05:58:15.865Z,1009.57
2017-05-14T05:59:16.480Z,1009.53
2017-05-14T06:00:17.104Z,1009.58
2017-05-14T06:01:17.741Z,1009.57
2017-05-14T06:02:18.367Z,1009.56
2017-05-14T06:03:18.996Z,1009.57
2017-05-14T06:04:19.617Z,1009.54
2017-05-14T06:05:20.247Z,1009.50
2017-05-14T06:06:20.877Z,1009.51
2017-05-14T06:07:21.496Z,1009.51
2017-05-14T06:08:22.126Z,1009.52
2017-05-14T06:09:22.753Z,1009.51
2017-05-14T06:10:23.377Z,1009.53
2017-05-14T06:11:24.059Z,1009.53
2017-05-14T06:12:24.690Z,1009.57
2017-05-14T06:13:25.315Z,1009.61
2017-05-14T06:14:25.948Z,1009.64
2017-05-14T06:15:26.567Z,1009.66
2017-05-14T06:16:27.244Z,1009.67
2017-05-14T06:17:27.884Z,1009.69
2017-05-14T06:18:28.515Z,1009.70
2017-05-14T06:19:29.148Z,1009.66
2017-05-14T06:20:29.767Z,1009.70
2017-05-14T06:21:30.399Z,1009.68
2017-05-14T06:22:31.019Z,1009.65
2017-05-14T06:23:31.649Z,1009.63
2017-05-14T06:24:32.282Z,1009.65
2017-05-14T06:25:32.902Z,1009.68
2017-05-14T06:26:33.585Z,1009.65
2017-05-14T06:27:34.216Z,1009.63
2017-05-14T06:28:34.832Z,1009.64
2017-05-14T06:29:35.458Z,1009.67
2017-05-14T06:30:36.086Z,1009.66
2017-05-14T06:31:36.703Z,1009.69
2017-05-14T06:32:37.330Z,1009.67
2017-05-14T06:33:37.956Z,1009.72
2017-05-14T06:34:38.584Z,1009.69
2017-05-14T06:35:39.201Z,1009.75
2017-05-14T06:36:39.822Z,1009.73
2017-05-14T06:37:40.458Z,1009.74
2017-05-14T06:38:41.084Z,1009.81
2017-05-14T06:39:41.714Z,1009.80
2017-05-14T06:40:42.332Z,1009.78
2017-05-14T06:41:42.950Z,1009.84
2017-05-14T06:42:43.579Z,1009.79
2017-05-14T06:43:44.211Z,1009.81
2017-05-14T06:44:44.835Z,1009.85
2017-05-14T06:45:45.458Z,1009.83
2017-05-14T06:46:46.076Z,1009.84
2017-05-14T06:47:46.699Z,1009.85
2017-05-14T06:48:47.331Z,1009.85
2017-05-14T06:49:47.957Z,1009.85
2017-05-14T06:50:48.582Z,1009.82
2017-05-14T06:51:49.198Z,1009.90
2017-05-14T06:52:49.875Z,1009.90
2017-05-14T06:53:50.482Z,1009.95
2017-05-14T06:54:51.100Z,1009.99
2017-05-14T06:55:51.728Z,1009.98
2017-05-14T06:56:52.352Z,1009.99
2017-05-14T06:57:52.977Z,1009.96
2017-05-14T06:58:53.600Z,1010.01
2017-05-14T06:59:54.230Z,1009.99
2017-05-14T07:00:54.840Z,1010.01
2017-05-14T07:01:55.455Z,1010.01
2017-05-14T07:02:56.137Z,1010.07
2017-05-14T07:03:56.754Z,1010.09
2017-05-14T07:04:57.380Z,1010.09
2017-05-14T07:05:57.998Z,1010.08
2017-05-14T07:06:58.608Z,1010.10
2017-05-14T07:07:59.223Z,1010.06
2017-05-14T07:08:59.839Z,1010.02
2017-05-14T07:10:00.467Z,1010.09
2017-05-14T07:11:01.079Z,1010.11
2017-05-14T07:12:01.703Z,1010.10
2017-05-14T07:13:02.340Z,1010.11
2017-05-14T07:14:02.966Z,1010.12
2017-05-14T07:15:03.594Z,1010.10
2017-05-14T07:16:04.221Z,1010.11
2017-05-14T07:17:04.848Z,1010.14
2017-05-14T07:18:05.515Z,1010.18
2017-05-14T07:19:06.140Z,1010.15
2017-05-14T07:20:06.764Z,1010.17
2017-05-14T07:21:07.393Z,1010.17
2017-05-14T07:22:08.020Z,1010.19
2017-05-14T07:23:08.647Z,1010.14
2017-05-14T07:24:09.272Z,1010.15
2017-05-14T07:25:09.888Z,1010.20
2017-05-14T07:26:10.518Z,1010.20
2017-05-14T07:27:11.147Z,1010.15
2017-05-14T07:28:11.774Z,1010.19
2017-05-14T07:29:12.396Z,1010.21
2017-05-14T07:30:13.010Z,1010.23
2017-05-14T07:31:13.636Z,1010.24
2017-05-14T07:32:14.312Z,1010.27
2017-05-14T07:33:14.937Z,1010.25
2017-05-14T07:34:15.551Z,1010.27
2017-05-14T07:35:16.175Z,1010.29
2017-05-14T07:36:16.792Z,1010.34
2017-05-14T07:37:17.402Z,1010.32
2017-05-14T07:38:18.026Z,1010.38
2017-05-14T07:39:18.647Z,1010.38
2017-05-14T07:40:19.258Z,1010.38
2017-05-14T07:41:19.888Z,1010.34
2017-05-14T07:42:20.566Z,1010.42
2017-05-14T07:43:21.190Z,1010.39
2017-05-14T07:44:21.822Z,1010.44
2017-05-14T07:45:22.452Z,1010.43
2017-05-14T07:46:23.080Z,1010.47
2017-05-14T07:47:23.759Z,1010.48
2017-05-14T07:48:24.387Z,1010.52
2017-05-14T07:49:25.009Z,1010.48
2017-05-14T07:50:25.627Z,1010.54
2017-05-14T07:51:26.252Z,1010.53
2017-05-14T07:52:26.914Z,1010.57
2017-05-14T07:53:27.539Z,1010.55
2017-05-14T07:54:28.167Z,1010.55
2017-05-14T07:55:28.777Z,1010.60
2017-05-14T07:56:29.411Z,1010.62
2017-05-14T07:57:30.085Z,1010.62
2017-05-14T07:58:30.711Z,1010.60
2017-05-14T07:59:31.338Z,1010.69
2017-05-14T08:00:31.956Z,1010.67
2017-05-14T08:01:32.567Z,1010.67
2017-05-14T08:02:33.176Z,1010.72
2017-05-14T08:03:33.786Z,1010.77
2017-05-14T08:04:34.404Z,1010.75
2017-05-14T08:05:35.019Z,1010.75
2017-05-14T08:06:35.654Z,1010.81
2017-05-14T08:07:36.263Z,1010.81
2017-05-14T08:08:36.897Z,1010.76
2017-05-14T08:09:37.522Z,1010.78
2017-05-14T08:10:38.146Z,1010.73
2017-05-14T08:11:38.765Z,1010.77
2017-05-14T08:12:39.384Z,1010.80
2017-05-14T08:13:39.992Z,1010.84
2017-05-14T08:14:40.607Z,1010.84
2017-05-14T08:15:41.230Z,1010.85
2017-05-14T08:16:41.863Z,1010.88
2017-05-14T08:17:42.484Z,1010.86
2017-05-14T08:18:43.113Z,1010.89
2017-05-14T08:19:43.731Z,1010.84
2017-05-14T08:20:44.346Z,1010.82
2017-05-14T08:21:44.975Z,1010.80
2017-05-14T08:22:45.604Z,1010.83
2017-05-14T08:23:46.223Z,1010.83
2017-05-14T08:24:46.840Z,1010.80
2017-05-14T08:25:47.478Z,1010.82
2017-05-14T08:26:48.134Z,1010.81
2017-05-14T08:27:48.760Z,1010.84
2017-05-14T08:28:49.385Z,1010.83
2017-05-14T08:29:49.997Z,1010.86
2017-05-14T08:30:50.625Z,1010.84
2017-05-14T08:31:51.254Z,1010.83
2017-05-14T08:32:51.874Z,1010.85
2017-05-14T08:33:52.491Z,1010.76
2017-05-14T08:34:53.118Z,1010.74
2017-05-14T08:35:53.730Z,1010.70
2017-05-14T08:36:54.358Z,1010.73
2017-05-14T08:37:54.990Z,1010.73
2017-05-14T08:38:55.620Z,1010.79
2017-05-14T08:39:56.255Z,1010.81
2017-05-14T08:40:56.877Z,1010.84
2017-05-14T08:41:57.554Z,1010.83
2017-05-14T08:42:58.193Z,1010.85
2017-05-14T08:43:58.801Z,1010.85
2017-05-14T08:44:59.416Z,1010.86
2017-05-14T08:46:00.044Z,1010.83
2017-05-14T08:47:00.673Z,1010.89
2017-05-14T08:48:01.301Z,1010.87
2017-05-14T08:49:01.917Z,1010.90
2017-05-14T08:50:02.546Z,1010.96
2017-05-14T08:51:03.175Z,1010.95
2017-05-14T08:52:03.845Z,1010.91
2017-05-14T08:53:04.461Z,1010.92
2017-05-14T08:54:05.093Z,1010.97
2017-05-14T08:55:05.710Z,1010.99
2017-05-14T08:56:06.335Z,1010.97
2017-05-14T08:57:07.017Z,1010.95
2017-05-14T08:58:07.648Z,1010.97
2017-05-14T08:59:08.277Z,1010.99
2017-05-14T09:00:08.896Z,1010.97
2017-05-14T09:01:09.514Z,1010.97
2017-05-14T09:02:10.147Z,1010.97
2017-05-14T09:03:10.780Z,1010.99
2017-05-14T09:04:11.388Z,1011.07
2017-05-14T09:05:12.010Z,1011.00
2017-05-14T09:06:12.638Z,1011.01
2017-05-14T09:07:13.268Z,1011.03
2017-05-14T09:08:13.887Z,1011.08
2017-05-14T09:09:14.503Z,1011.00
2017-05-14T09:10:15.123Z,1011.06
2017-05-14T09:11:15.745Z,1011.06
2017-05-14T09:12:16.370Z,1011.08
2017-05-14T09:13:16.995Z,1011.06
2017-05-14T09:14:17.605Z,1011.09
2017-05-14T09:15:18.274Z,1011.14
2017-05-14T09:16:18.899Z,1011.09
2017-05-14T09:17:19.520Z,1011.12
2017-05-14T09:18:20.146Z,1011.11
2017-05-14T09:19:20.779Z,1011.13
2017-05-14T09:20:21.452Z,1011.15
2017-05-14T09:21:22.068Z,1011.20
2017-05-14T09:22:22.686Z,1011.15
2017-05-14T09:23:23.308Z,1011.06
2017-05-14T09:24:23.922Z,1011.11
2017-05-14T09:25:24.536Z,1011.09
2017-05-14T09:26:25.243Z,1011.12
2017-05-14T09:27:25.896Z,1011.07
2017-05-14T09:28:26.521Z,1011.12
2017-05-14T09:29:27.147Z,1011.15
2017-05-14T09:30:27.769Z,1011.09
2017-05-14T09:31:28.453Z,1011.15
2017-05-14T09:32:29.082Z,1011.13
2017-05-14T09:33:29.712Z,1011.12
2017-05-14T09:34:30.337Z,1011.07
2017-05-14T09:35:30.958Z,1011.12
2017-05-14T09:36:31.590Z,1011.14
2017-05-14T09:37:32.211Z,1011.17
2017-05-14T09:38:32.837Z,1011.21
2017-05-14T09:39:33.453Z,1011.16
2017-05-14T09:40:34.072Z,1011.21
2017-05-14T09:41:34.748Z,1011.22
2017-05-14T09:42:35.375Z,1011.24
2017-05-14T09:43:36.001Z,1011.24
2017-05-14T09:44:36.621Z,1011.24
2017-05-14T09:45:37.251Z,1011.24
2017-05-14T09:46:37.921Z,1011.28
2017-05-14T09:47:38.554Z,1011.25
2017-05-14T09:48:39.172Z,1011.22
2017-05-14T09:49:39.788Z,1011.18
2017-05-14T09:50:40.417Z,1011.24
2017-05-14T09:51:41.092Z,1011.29
2017-05-14T09:52:41.727Z,1011.26
2017-05-14T09:53:42.356Z,1011.22
2017-05-14T09:54:42.990Z,1011.26
2017-05-14T09:55:43.602Z,1011.24
2017-05-14T09:56:44.284Z,1011.32
2017-05-14T09:57:44.917Z,1011.28
2017-05-14T09:58:45.552Z,1011.27
2017-05-14T09:59:46.179Z,1011.29
2017-05-14T10:00:46.801Z,1011.21
2017-05-14T10:01:47.421Z,1011.20
2017-05-14T10:02:48.053Z,1011.18
2017-05-14T10:03:48.675Z,1011.18
2017-05-14T10:04:49.297Z,1011.18
2017-05-14T10:05:49.914Z,1011.18
2017-05-14T10:06:50.538Z,1011.18
2017-05-14T10:07:51.181Z,1011.15
2017-05-14T10:08:51.802Z,1011.13
2017-05-14T10:09:52.424Z,1011.14
2017-05-14T10:10:53.044Z,1011.20
2017-05-14T10:11:53.668Z,1011.15
2017-05-14T10:12:54.302Z,1011.08
2017-05-14T10:13:54.927Z,1011.09
2017-05-14T10:14:55.553Z,1011.07
2017-05-14T10:15:56.185Z,1011.08
2017-05-14T10:16:56.811Z,1011.08
2017-05-14T10:17:57.441Z,1011.09
2017-05-14T10:18:58.080Z,1011.07
2017-05-14T10:19:58.713Z,1011.04
2017-05-14T10:20:59.340Z,1011.09
2017-05-14T10:22:00.024Z,1011.12
2017-05-14T10:23:00.644Z,1011.09
2017-05-14T10:24:01.272Z,1011.02
2017-05-14T10:25:01.890Z,1010.97
2017-05-14T10:26:02.517Z,1011.02
2017-05-14T10:27:03.140Z,1011.09
2017-05-14T10:28:03.762Z,1010.97
2017-05-14T10:29:04.393Z,1011.04
2017-05-14T10:30:05.019Z,1011.01
2017-05-14T10:31:05.668Z,1010.94
2017-05-14T10:32:06.276Z,1011.06
2017-05-14T10:33:06.910Z,1011.08
2017-05-14T10:34:07.534Z,1011.02
2017-05-14T10:35:08.170Z,1011.04
2017-05-14T10:36:08.829Z,1011.05
2017-05-14T10:37:09.459Z,1011.00
2017-05-14T10:38:10.089Z,1011.01
2017-05-14T10:39:10.708Z,1010.98
2017-05-14T10:40:11.329Z,1011.06
2017-05-14T10:41:11.962Z,1011.01
2017-05-14T10:42:12.594Z,1011.07
2017-05-14T10:43:13.215Z,1011.02
2017-05-14T10:44:13.836Z,1011.02
2017-05-14T10:45:14.468Z,1011.07
2017-05-14T10:46:15.152Z,1011.09
2017-05-14T10:47:15.778Z,1011.07
2017-05-14T10:48:16.411Z,1011.13
2017-05-14T10:49:17.033Z,1011.14
2017-05-14T10:50:17.658Z,1011.08
2017-05-14T10:51:18.294Z,1011.12
2017-05-14T10:52:18.929Z,1011.12
2017-05-14T10:53:19.567Z,1011.16
2017-05-14T10:54:20.190Z,1011.16
2017-05-14T10:55:20.811Z,1011.21
2017-05-14T10:56:21.481Z,1011.18
2017-05-14T10:57:22.117Z,1011.23
2017-05-14T10:58:22.757Z,1011.22
2017-05-14T10:59:23.381Z,1011.24
2017-05-14T11:00:24.001Z,1011.27
2017-05-14T11:01:24.683Z,1011.25
2017-05-14T11:02:25.304Z,1011.22
2017-05-14T11:03:25.931Z,1011.27
2017-05-14T11:04:26.565Z,1011.28
2017-05-14T11:05:27.199Z,1011.27
2017-05-14T11:06:27.834Z,1011.18
2017-05-14T11:07:28.453Z,1011.26
2017-05-14T11:08:29.086Z,1011.31
2017-05-14T11:09:29.719Z,1011.30
2017-05-14T11:10:30.349Z,1011.34
2017-05-14T11:11:31.020Z,1011.23
2017-05-14T11:12:31.648Z,1011.29
2017-05-14T11:13:32.281Z,1011.30
2017-05-14T11:14:32.902Z,1011.32
2017-05-14T11:15:33.523Z,1011.31
2017-05-14T11:16:34.199Z,1011.26
2017-05-14T11:17:34.822Z,1011.39
2017-05-14T11:18:35.451Z,1011.35
2017-05-14T11:19:36.085Z,1011.32
2017-05-14T11:20:36.716Z,1011.42
2017-05-14T11:21:37.402Z,1011.34
2017-05-14T11:22:38.021Z,1011.31
2017-05-14T11:23:38.652Z,1011.44
2017-05-14T11:24:39.289Z,1011.38
2017-05-14T11:25:39.923Z,1011.31
2017-05-14T11:26:40.546Z,1011.36
2017-05-14T11:27:41.183Z,1011.36
2017-05-14T11:28:41.807Z,1011.40
2017-05-14T11:29:42.441Z,1011.31
2017-05-14T11:30:43.075Z,1011.39
2017-05-14T11:31:43.766Z,1011.30
2017-05-14T11:32:44.398Z,1011.35
2017-05-14T11:33:45.035Z,1011.39
2017-05-14T11:34:45.659Z,1011.38
2017-05-14T11:35:46.281Z,1011.31
2017-05-14T11:36:46.965Z,1011.39
2017-05-14T11:37:47.602Z,1011.41
2017-05-14T11:38:48.235Z,1011.39
2017-05-14T11:39:48.868Z,1011.49
2017-05-14T11:40:49.484Z,1011.48
2017-05-14T11:41:50.102Z,1011.50
2017-05-14T11:42:50.722Z,1011.51
2017-05-14T11:43:51.354Z,1011.52
2017-05-14T11:44:51.977Z,1011.52
2017-05-14T11:45:52.608Z,1011.54
2017-05-14T11:46:53.240Z,1011.52
2017-05-14T11:47:53.874Z,1011.54
2017-05-14T11:48:54.494Z,1011.56
2017-05-14T11:49:55.118Z,1011.54
2017-05-14T11:50:55.751Z,1011.50
2017-05-14T11:51:56.370Z,1011.50
2017-05-14T11:52:57.002Z,1011.53
2017-05-14T11:53:57.630Z,1011.51
2017-05-14T11:54:58.249Z,1011.50
2017-05-14T11:55:58.875Z,1011.51
2017-05-14T11:56:59.508Z,1011.55
2017-05-14T11:58:00.140Z,1011.56
2017-05-14T11:59:00.772Z,1011.58
2017-05-14T12:00:01.404Z,1011.57
2017-05-14T12:01:02.035Z,1011.59
2017-05-14T12:02:02.682Z,1011.60
2017-05-14T12:03:03.325Z,1011.65
2017-05-14T12:04:03.954Z,1011.63
2017-05-14T12:05:04.568Z,1011.64
2017-05-14T12:06:05.190Z,1011.62
2017-05-14T12:07:05.800Z,1011.64
2017-05-14T12:08:06.452Z,1011.63
2017-05-14T12:09:07.128Z,1011.64
2017-05-14T12:10:07.743Z,1011.73
2017-05-14T12:11:08.363Z,1011.60
2017-05-14T12:12:08.989Z,1011.65
2017-05-14T12:13:09.629Z,1011.58